createdAt,value
2018-05-15T00:01:06.919Z,81.49
2018-05-15T00:04:10.162Z,81.89
2018-05-15T00:07:13.433Z,82.31
2018-05-15T00:10:16.681Z,82.37
2018-05-15T00:13:19.939Z,83.59
2018-05-15T00:16:23.201Z,82.98
2018-05-15T00:19:26.454Z,83.08
2018-05-15T00:22:29.709Z,82.90
2018-05-15T00:25:32.990Z,82.83
2018-05-15T00:28:36.242Z,83.16
2018-05-15T00:31:39.510Z,83.83
2018-05-15T00:34:42.775Z,83.73
2018-05-15T00:37:46.053Z,83.83
2018-05-15T00:40:50.132Z,83.08
2018-05-15T00:43:53.466Z,82.70
2018-05-15T00:46:57.492Z,83.80
2018-05-15T00:50:01.603Z,84.05
2018-05-15T00:53:04.779Z,83.11
2018-05-15T00:56:08.046Z,82.88
2018-05-15T00:59:11.301Z,84.35
2018-05-15T01:02:14.565Z,84.46
2018-05-15T01:05:17.819Z,85.00
2018-05-15T01:08:21.850Z,85.04
2018-05-15T01:11:25.124Z,85.04
2018-05-15T01:14:28.403Z,84.94
2018-05-15T01:17:31.663Z,84.76
2018-05-15T01:20:34.918Z,84.33
2018-05-15T01:23:38.226Z,83.47
2018-05-15T01:26:41.450Z,83.41
2018-05-15T01:29:44.734Z,82.77
2018-05-15T01:32:48.799Z,83.56
2018-05-15T01:35:52.058Z,83.29
2018-05-15T01:38:55.321Z,83.24
2018-05-15T01:41:58.601Z,82.50
2018-05-15T01:45:01.863Z,81.99
2018-05-15T01:48:05.124Z,77.99
2018-05-15T01:51:08.460Z,78.42
2018-05-15T01:54:12.475Z,78.07
2018-05-15T01:57:15.744Z,78.81
2018-05-15T02:00:19.545Z,80.00
2018-05-15T02:03:22.815Z,80.39
2018-05-15T02:06:26.066Z,80.65
2018-05-15T02:09:30.090Z,79.96
2018-05-15T02:12:35.163Z,79.63
2018-05-15T02:15:38.424Z,78.13
2018-05-15T02:18:42.488Z,79.00
2018-05-15T02:21:45.749Z,80.02
2018-05-15T02:24:49.770Z,80.00
2018-05-15T02:27:53.036Z,79.75
2018-05-15T02:30:56.289Z,79.82
2018-05-15T02:33:59.543Z,80.57
2018-05-15T02:37:02.809Z,80.45
2018-05-15T02:40:06.065Z,80.66
2018-05-15T02:43:09.409Z,80.08
2018-05-15T02:46:12.659Z,79.44
2018-05-15T02:49:16.701Z,79.39
2018-05-15T02:52:19.964Z,80.09
2018-05-15T02:55:23.993Z,80.02
2018-05-15T02:58:27.276Z,80.05
2018-05-15T03:01:31.330Z,80.84
2018-05-15T03:04:34.584Z,81.85
2018-05-15T03:07:38.617Z,83.12
2018-05-15T03:10:41.883Z,84.03
2018-05-15T03:13:46.097Z,84.56
2018-05-15T03:16:49.365Z,85.09
2018-05-15T03:19:52.628Z,85.16
2018-05-15T03:22:56.656Z,85.44
2018-05-15T03:25:59.946Z,85.39
2018-05-15T03:29:03.978Z,85.55
2018-05-15T03:32:08.004Z,85.73
2018-05-15T03:35:11.261Z,86.10
2018-05-15T03:38:14.531Z,86.20
2018-05-15T03:41:17.793Z,86.09
2018-05-15T03:44:21.061Z,86.74
2018-05-15T03:47:24.332Z,86.95
2018-05-15T03:50:27.609Z,87.02
2018-05-15T03:53:31.010Z,86.94
2018-05-15T03:56:34.297Z,86.78
2018-05-15T03:59:37.549Z,86.93
2018-05-15T04:02:58.688Z,86.47
2018-05-15T04:06:20.380Z,86.78
2018-05-15T04:09:23.649Z,86.77
2018-05-15T04:12:26.942Z,86.35
2018-05-15T04:15:30.185Z,85.92
2018-05-15T04:18:33.460Z,85.73
2018-05-15T04:21:36.768Z,85.94
2018-05-15T04:24:40.056Z,85.63
2018-05-15T04:27:44.086Z,84.96
2018-05-15T04:30:49.180Z,83.44
2018-05-15T04:33:52.464Z,79.82
2018-05-15T04:36:55.724Z,80.49
2018-05-15T04:39:59.043Z,79.60
2018-05-15T04:43:02.329Z,78.33
2018-05-15T04:46:05.819Z,77.02
2018-05-15T04:49:09.226Z,75.69
2018-05-15T04:52:12.629Z,76.08
2018-05-15T04:55:16.008Z,73.65
2018-05-15T04:58:19.331Z,74.08
2018-05-15T05:01:22.614Z,73.98
2018-05-15T05:04:26.645Z,71.71
2018-05-15T05:07:29.888Z,71.59
2018-05-15T05:10:33.161Z,72.61
2018-05-15T05:13:36.538Z,72.03
2018-05-15T05:16:39.890Z,71.66
2018-05-15T05:19:43.145Z,70.82
2018-05-15T05:22:46.411Z,69.96
2018-05-15T05:25:49.676Z,69.22
2018-05-15T05:28:53.041Z,67.62
2018-05-15T05:31:57.049Z,68.77
2018-05-15T05:35:00.320Z,68.51
2018-05-15T05:38:03.582Z,69.17
2018-05-15T05:41:07.615Z,68.69
2018-05-15T05:44:11.635Z,68.22
2018-05-15T05:47:14.885Z,68.17
2018-05-15T05:50:18.147Z,66.99
2018-05-15T05:53:21.423Z,66.60
2018-05-15T05:56:24.677Z,65.38
2018-05-15T05:59:28.702Z,61.80
2018-05-15T06:02:32.745Z,60.68
2018-05-15T06:05:36.767Z,58.33
2018-05-15T06:08:40.793Z,58.25
2018-05-15T06:11:44.710Z,59.74
2018-05-15T06:14:47.983Z,63.39
2018-05-15T06:17:51.233Z,64.43
2018-05-15T06:20:54.531Z,63.99
2018-05-15T06:23:58.290Z,65.46
2018-05-15T06:27:01.534Z,64.17
2018-05-15T06:30:04.793Z,63.44
2018-05-15T06:33:08.076Z,64.09
2018-05-15T06:36:11.333Z,63.50
2018-05-15T06:39:15.377Z,63.62
2018-05-15T06:42:18.632Z,64.92
2018-05-15T06:45:21.887Z,62.75
2018-05-15T06:48:25.915Z,63.69
2018-05-15T06:51:29.930Z,64.83
2018-05-15T06:54:33.201Z,65.00
2018-05-15T06:57:36.449Z,63.79
2018-05-15T07:00:39.710Z,64.42
2018-05-15T07:03:42.966Z,65.43
2018-05-15T07:06:46.981Z,63.72
2018-05-15T07:09:50.237Z,63.02
2018-05-15T07:12:53.498Z,62.66
2018-05-15T07:15:56.762Z,61.44
2018-05-15T07:19:00.031Z,61.50
2018-05-15T07:22:03.357Z,61.07
2018-05-15T07:25:06.609Z,59.94
2018-05-15T07:28:09.883Z,58.96
2018-05-15T07:31:13.730Z,59.10
2018-05-15T07:34:16.983Z,58.05
2018-05-15T07:37:21.003Z,59.36
2018-05-15T07:40:24.270Z,54.75
2018-05-15T07:43:28.979Z,53.87
2018-05-15T07:46:32.248Z,55.39
2018-05-15T07:49:35.503Z,55.49
2018-05-15T07:52:39.847Z,56.39
2018-05-15T07:55:43.134Z,57.39
2018-05-15T07:58:47.157Z,55.49
2018-05-15T08:01:51.259Z,53.50
2018-05-15T08:04:54.529Z,53.95
2018-05-15T08:07:57.820Z,55.64
2018-05-15T08:11:01.865Z,55.57
2018-05-15T08:14:05.122Z,56.68
2018-05-15T08:17:08.386Z,57.75
2018-05-15T08:20:11.651Z,57.00
2018-05-15T08:23:15.738Z,57.58
2018-05-15T08:26:19.014Z,55.39
2018-05-15T08:29:22.266Z,55.26
2018-05-15T08:32:26.311Z,57.18
2018-05-15T08:35:29.561Z,57.19
2018-05-15T08:38:33.591Z,55.72
2018-05-15T08:41:37.625Z,55.48
2018-05-15T08:44:40.882Z,55.31
2018-05-15T08:47:44.139Z,54.96
2018-05-15T08:50:48.146Z,56.67
2018-05-15T08:53:51.413Z,55.13
2018-05-15T08:56:55.445Z,56.30
2018-05-15T09:00:00.189Z,56.51
2018-05-15T09:03:03.441Z,56.13
2018-05-15T09:06:06.774Z,54.00
2018-05-15T09:09:10.813Z,54.68
2018-05-15T09:12:14.071Z,54.46
2018-05-15T09:15:17.330Z,56.13
2018-05-15T09:18:20.699Z,56.24
2018-05-15T09:21:23.877Z,56.96
2018-05-15T09:24:27.133Z,55.48
2018-05-15T09:27:30.388Z,56.53
2018-05-15T09:30:34.431Z,56.45
2018-05-15T09:33:37.705Z,55.90
2018-05-15T09:36:42.766Z,55.80
2018-05-15T09:39:46.035Z,56.41
2018-05-15T09:42:50.064Z,58.02
2018-05-15T09:45:53.333Z,56.17
2018-05-15T09:48:56.914Z,55.16
2018-05-15T09:52:00.193Z,55.35
2018-05-15T09:55:03.562Z,55.72
2018-05-15T09:58:07.613Z,56.83
2018-05-15T10:01:10.866Z,56.79
2018-05-15T10:04:14.886Z,54.73
2018-05-15T10:07:18.922Z,56.62
2018-05-15T10:10:22.198Z,56.61
2018-05-15T10:13:25.466Z,56.59
2018-05-15T10:16:28.740Z,54.96
2018-05-15T10:19:31.993Z,52.89
2018-05-15T10:22:36.040Z,52.68
2018-05-15T10:25:39.298Z,52.83
2018-05-15T10:28:42.554Z,52.77
2018-05-15T10:31:45.820Z,52.53
2018-05-15T10:34:49.075Z,49.60
2018-05-15T10:37:52.338Z,49.92
2018-05-15T10:40:55.613Z,50.03
2018-05-15T10:43:58.918Z,50.49
2018-05-15T10:47:02.137Z,45.88
2018-05-15T10:50:05.398Z,47.42
2018-05-15T10:53:08.654Z,48.16
2018-05-15T10:56:11.928Z,47.28
2018-05-15T10:59:15.939Z,49.71
2018-05-15T11:02:19.962Z,50.69
2018-05-15T11:05:23.988Z,49.24
2018-05-15T11:08:28.076Z,48.32
2018-05-15T11:11:31.335Z,48.54
2018-05-15T11:14:34.587Z,47.91
2018-05-15T11:17:38.619Z,48.62
2018-05-15T11:21:00.291Z,49.08
2018-05-15T11:27:50.671Z,49.60
2018-05-15T11:30:54.707Z,49.24
2018-05-15T11:33:58.744Z,49.31
2018-05-15T11:37:02.005Z,51.34
2018-05-15T11:40:05.256Z,49.55
2018-05-15T11:43:08.521Z,50.03
2018-05-15T11:46:12.562Z,50.43
2018-05-15T11:49:16.256Z,51.47
2018-05-15T11:52:20.072Z,47.69
2018-05-15T11:55:22.364Z,49.87
2018-05-15T11:58:26.402Z,51.66
2018-05-15T12:01:29.662Z,52.81
2018-05-15T12:04:32.938Z,56.69
2018-05-15T12:07:36.203Z,55.40
2018-05-15T12:10:40.241Z,57.51
2018-05-15T12:13:43.515Z,59.04
2018-05-15T12:16:46.776Z,61.92
2018-05-15T12:19:50.789Z,68.01
2018-05-15T12:22:54.881Z,71.54
2018-05-15T12:25:58.168Z,69.77
2018-05-15T12:29:01.422Z,65.43
2018-05-15T12:32:04.685Z,67.75
2018-05-15T12:35:09.748Z,65.62
2018-05-15T12:38:15.078Z,63.34
2018-05-15T12:41:18.396Z,57.32
2018-05-15T12:44:21.601Z,57.69
2018-05-15T12:47:24.855Z,54.52
2018-05-15T12:50:28.112Z,57.65
2018-05-15T12:53:32.499Z,53.60
2018-05-15T12:56:35.762Z,56.99
2018-05-15T12:59:39.016Z,57.93
2018-05-15T13:02:42.279Z,58.33
2018-05-15T13:05:45.539Z,55.82
2018-05-15T13:08:48.834Z,56.36
2018-05-15T13:11:52.198Z,56.53
2018-05-15T13:14:55.470Z,59.62
2018-05-15T13:17:58.733Z,59.72
2018-05-15T13:21:02.085Z,66.15
2018-05-15T13:24:05.473Z,66.17
2018-05-15T13:27:09.714Z,67.11
2018-05-15T13:30:13.839Z,68.18
2018-05-15T13:33:17.947Z,68.30
2018-05-15T13:36:21.248Z,67.57
2018-05-15T13:39:24.566Z,69.58
2018-05-15T13:42:28.743Z,71.49
2018-05-15T13:45:32.003Z,71.14
2018-05-15T13:48:35.473Z,68.51
2018-05-15T13:51:39.563Z,68.23
2018-05-15T13:54:43.638Z,67.02
2018-05-15T13:57:47.002Z,67.94
2018-05-15T14:00:50.280Z,64.51
2018-05-15T14:03:53.619Z,63.38
2018-05-15T14:06:57.277Z,64.27
2018-05-15T14:10:01.741Z,64.79
2018-05-15T14:13:05.096Z,64.84
2018-05-15T14:16:08.367Z,64.69
2018-05-15T14:19:11.697Z,64.23
2018-05-15T14:22:14.910Z,65.61
2018-05-15T14:25:18.174Z,65.56
2018-05-15T14:28:21.437Z,62.66
2018-05-15T14:31:25.690Z,63.46
2018-05-15T14:34:29.786Z,63.29
2018-05-15T14:37:33.114Z,62.51
2018-05-15T14:40:36.500Z,62.79
2018-05-15T14:43:40.091Z,63.32
2018-05-15T14:46:43.376Z,63.22
2018-05-15T14:49:46.755Z,60.99
2018-05-15T14:52:50.024Z,61.01
2018-05-15T14:55:53.306Z,58.78
2018-05-15T14:58:56.558Z,59.44
2018-05-15T15:01:59.870Z,56.72
2018-05-15T15:05:03.344Z,58.40
2018-05-15T15:08:06.637Z,60.02
2018-05-15T15:11:09.927Z,58.28
2018-05-15T15:14:13.949Z,54.52
2018-05-15T15:17:18.078Z,53.08
2018-05-15T15:20:22.139Z,53.58
2018-05-15T15:23:25.539Z,55.83
2018-05-15T15:26:28.806Z,58.48
2018-05-15T15:29:32.967Z,55.67
2018-05-15T15:32:36.262Z,61.33
2018-05-15T15:35:39.624Z,61.22
2018-05-15T15:38:42.939Z,61.29
2018-05-15T15:41:46.326Z,60.17
2018-05-15T15:44:49.616Z,60.75
2018-05-15T15:47:52.878Z,59.68
2018-05-15T15:50:57.052Z,59.32
2018-05-15T15:54:00.377Z,58.30
2018-05-15T15:57:03.710Z,58.49
2018-05-15T16:00:07.735Z,58.00
2018-05-15T16:03:11.081Z,55.84
2018-05-15T16:06:14.346Z,58.11
2018-05-15T16:09:18.533Z,57.14
2018-05-15T16:12:21.943Z,58.76
2018-05-15T16:15:25.233Z,60.36
2018-05-15T16:18:28.538Z,58.91
2018-05-15T16:21:31.802Z,59.96
2018-05-15T16:24:35.128Z,61.21
2018-05-15T16:27:38.454Z,60.74
2018-05-15T16:30:41.702Z,60.32
2018-05-15T16:33:45.763Z,60.11
2018-05-15T16:36:49.031Z,60.67
2018-05-15T16:39:53.273Z,60.91
2018-05-15T16:42:56.965Z,60.28
2018-05-15T16:46:01.667Z,57.22
2018-05-15T16:49:06.604Z,53.74
2018-05-15T16:52:10.646Z,52.24
2018-05-15T16:55:14.675Z,53.56
2018-05-15T16:58:18.781Z,55.32
2018-05-15T17:01:22.085Z,59.28
2018-05-15T17:04:26.228Z,60.73
2018-05-15T17:07:30.269Z,62.10
2018-05-15T17:10:33.544Z,62.48
2018-05-15T17:13:38.002Z,62.63
2018-05-15T17:16:41.473Z,64.01
2018-05-15T17:19:44.849Z,65.30
2018-05-15T17:22:48.210Z,66.76
2018-05-15T17:25:52.328Z,67.27
2018-05-15T17:28:56.362Z,67.52
2018-05-15T17:31:59.637Z,69.29
2018-05-15T17:35:03.793Z,71.08
2018-05-15T17:38:07.097Z,71.86
2018-05-15T17:41:10.447Z,72.80
2018-05-15T17:44:13.723Z,74.08
2018-05-15T17:47:17.023Z,76.19
2018-05-15T17:50:20.329Z,65.27
2018-05-15T17:53:23.705Z,62.85
2018-05-15T17:56:27.123Z,60.93
2018-05-15T17:59:30.482Z,63.57
2018-05-15T18:02:33.786Z,63.74
2018-05-15T18:05:37.843Z,64.71
2018-05-15T18:08:41.458Z,66.40
2018-05-15T18:11:44.717Z,67.54
2018-05-15T18:14:47.992Z,69.13
2018-05-15T18:17:51.290Z,73.13
2018-05-15T18:20:54.732Z,75.35
2018-05-15T18:23:57.991Z,77.54
2018-05-15T18:27:01.265Z,77.91
2018-05-15T18:30:04.529Z,78.45
2018-05-15T18:33:08.904Z,78.70
2018-05-15T18:36:12.251Z,78.08
2018-05-15T18:39:15.644Z,76.26
2018-05-15T18:42:18.905Z,75.84
2018-05-15T18:45:22.191Z,76.18
2018-05-15T18:48:26.190Z,77.60
2018-05-15T18:51:29.456Z,77.88
2018-05-15T18:54:32.741Z,77.52
2018-05-15T18:57:36.213Z,79.07
2018-05-15T19:00:39.589Z,79.23
2018-05-15T19:03:43.745Z,78.90
2018-05-15T19:06:47.096Z,80.05
2018-05-15T19:09:50.301Z,79.18
2018-05-15T19:12:53.596Z,79.46
2018-05-15T19:15:57.674Z,79.80
2018-05-15T19:19:00.950Z,79.25
2018-05-15T19:22:04.207Z,79.04
2018-05-15T19:25:07.465Z,79.23
2018-05-15T19:28:10.777Z,78.24
2018-05-15T19:31:16.906Z,78.02
2018-05-15T19:34:24.902Z,78.87
2018-05-15T19:37:28.230Z,79.03
2018-05-15T19:40:32.249Z,81.00
2018-05-15T19:43:35.503Z,79.80
2018-05-15T19:46:40.793Z,79.29
2018-05-15T19:49:47.294Z,79.19
2018-05-15T19:52:50.619Z,79.82
2018-05-15T19:55:53.961Z,80.07
2018-05-15T19:58:57.236Z,80.17
2018-05-15T20:02:00.608Z,81.76
2018-05-15T20:05:04.537Z,81.13
2018-05-15T20:08:08.559Z,80.83
2018-05-15T20:11:12.161Z,81.40
2018-05-15T20:14:15.426Z,81.13
2018-05-15T20:17:18.699Z,81.35
2018-05-15T20:20:22.755Z,81.23
2018-05-15T20:23:26.008Z,80.91
2018-05-15T20:26:29.275Z,80.79
2018-05-15T20:29:32.527Z,80.71
2018-05-15T20:32:35.932Z,80.66
2018-05-15T20:35:39.194Z,80.80
2018-05-15T20:38:42.448Z,80.82
2018-05-15T20:41:45.707Z,81.58
2018-05-15T20:44:49.801Z,81.21
2018-05-15T20:47:53.105Z,81.70
2018-05-15T20:50:57.153Z,81.59
2018-05-15T20:54:00.411Z,81.64
2018-05-15T20:57:03.678Z,82.25
2018-05-15T21:00:06.938Z,82.21
2018-05-15T21:03:10.211Z,82.64
2018-05-15T21:06:14.234Z,82.08
2018-05-15T21:09:17.529Z,82.14
2018-05-15T21:12:21.546Z,82.26
2018-05-15T21:15:25.562Z,83.11
2018-05-15T21:18:28.818Z,83.14
2018-05-15T21:21:32.089Z,83.00
2018-05-15T21:24:36.202Z,82.50
2018-05-15T21:27:39.459Z,82.40
2018-05-15T21:30:43.509Z,82.07
2018-05-15T21:33:46.765Z,81.93
2018-05-15T21:36:50.183Z,82.16
2018-05-15T21:39:53.392Z,82.42
2018-05-15T21:42:57.412Z,81.83
2018-05-15T21:46:00.673Z,82.67
2018-05-15T21:49:03.938Z,82.22
2018-05-15T21:52:07.963Z,82.41
2018-05-15T21:55:11.210Z,81.92
2018-05-15T21:58:14.458Z,82.16
2018-05-15T22:01:17.715Z,82.14
2018-05-15T22:04:21.739Z,82.90
2018-05-15T22:07:24.995Z,82.25
2018-05-15T22:10:28.330Z,82.96
2018-05-15T22:13:49.906Z,83.15
2018-05-15T22:17:10.849Z,83.09
2018-05-15T22:20:31.896Z,82.98
2018-05-15T22:23:35.165Z,83.13
2018-05-15T22:26:38.484Z,83.17
2018-05-15T22:29:41.732Z,83.36
2018-05-15T22:32:44.999Z,83.13
2018-05-15T22:35:49.339Z,83.20
2018-05-15T22:38:53.377Z,83.03
2018-05-15T22:41:57.572Z,83.23
2018-05-15T22:45:01.582Z,83.87
2018-05-15T22:48:05.611Z,83.08
2018-05-15T22:51:09.634Z,83.73
2018-05-15T22:54:12.930Z,83.52
2018-05-15T22:57:16.954Z,83.74
2018-05-15T23:00:20.368Z,83.67
2018-05-15T23:03:23.651Z,83.71
2018-05-15T23:06:27.695Z,83.86
2018-05-15T23:09:30.941Z,83.55
2018-05-15T23:12:34.258Z,83.02
2018-05-15T23:15:38.358Z,83.52
2018-05-15T23:18:41.558Z,83.29
2018-05-15T23:21:44.835Z,82.86
2018-05-15T23:24:48.107Z,83.75
2018-05-15T23:27:51.365Z,83.41
2018-05-15T23:30:54.629Z,83.29
2018-05-15T23:33:57.865Z,83.30
2018-05-15T23:37:01.130Z,83.41
2018-05-15T23:40:04.386Z,83.12
2018-05-15T23:43:08.531Z,83.40
2018-05-15T23:46:11.791Z,83.54
2018-05-15T23:49:15.029Z,83.71
2018-05-15T23:52:19.157Z,83.42
2018-05-15T23:55:22.502Z,83.83
2018-05-15T23:58:25.778Z,83.91
